sensor_id;sensor_type;location;lat;lon;timestamp;temperature;humidity
42905;DHT22;28550;51.228;4.528;2023-04-02T00:01:36;8.30;99.90
42905;DHT22;28550;51.228;4.528;2023-04-02T00:04:11;8.20;99.90
42905;DHT22;28550;51.228;4.528;2023-04-02T00:07:27;8.20;99.90
42905;DHT22;28550;51.228;4.528;2023-04-02T00:09:58;8.10;99.90
42905;DHT22;28550;51.228;4.528;2023-04-02T00:12:25;8.20;99.90
42905;DHT22;28550;51.228;4.528;2023-04-02T00:14:53;8.20;99.90
42905;DHT22;28550;51.228;4.528;2023-04-02T00:17:22;8.30;99.90
42905;DHT22;28550;51.228;4.528;2023-04-02T00:19:57;8.20;99.90
42905;DHT22;28550;51.228;4.528;2023-04-02T00:22:29;8.30;99.90
42905;DHT22;28550;51.228;4.528;2023-04-02T00:25:07;8.20;99.90
42905;DHT22;28550;51.228;4.528;2023-04-02T00:27:40;8.20;99.90
42905;DHT22;28550;51.228;4.528;2023-04-02T00:33:29;8.10;99.90
42905;DHT22;28550;51.228;4.528;2023-04-02T00:35:56;8.00;99.90
42905;DHT22;28550;51.228;4.528;2023-04-02T00:38:29;8.00;99.90
42905;DHT22;28550;51.228;4.528;2023-04-02T00:41:20;8.00;99.90
42905;DHT22;28550;51.228;4.528;2023-04-02T00:43:57;8.00;99.90
42905;DHT22;28550;51.228;4.528;2023-04-02T00:46:51;8.00;99.90
42905;DHT22;28550;51.228;4.528;2023-04-02T00:49:39;8.10;99.90
42905;DHT22;28550;51.228;4.528;2023-04-02T00:52:13;8.00;99.90
42905;DHT22;28550;51.228;4.528;2023-04-02T00:54:49;8.00;99.90
42905;DHT22;28550;51.228;4.528;2023-04-02T00:57:20;8.00;99.90
42905;DHT22;28550;51.228;4.528;2023-04-02T01:00:13;8.00;99.90
42905;DHT22;28550;51.228;4.528;2023-04-02T01:06:15;7.90;99.90
42905;DHT22;28550;51.228;4.528;2023-04-02T01:14:25;7.90;99.90
42905;DHT22;28550;51.228;4.528;2023-04-02T01:22:50;7.70;99.90
42905;DHT22;28550;51.228;4.528;2023-04-02T01:25:23;7.70;99.90
42905;DHT22;28550;51.228;4.528;2023-04-02T01:28:24;7.70;99.90
42905;DHT22;28550;51.228;4.528;2023-04-02T01:30:58;7.70;99.90
42905;DHT22;28550;51.228;4.528;2023-04-02T01:33:29;7.70;99.90
42905;DHT22;28550;51.228;4.528;2023-04-02T01:39:48;7.70;99.90
42905;DHT22;28550;51.228;4.528;2023-04-02T01:45:08;7.60;99.90
42905;DHT22;28550;51.228;4.528;2023-04-02T01:47:43;7.70;99.90
42905;DHT22;28550;51.228;4.528;2023-04-02T01:52:49;7.70;99.90
42905;DHT22;28550;51.228;4.528;2023-04-02T01:55:28;7.70;99.90
42905;DHT22;28550;51.228;4.528;2023-04-02T01:57:54;7.60;99.90
42905;DHT22;28550;51.228;4.528;2023-04-02T02:00:22;7.70;99.90
42905;DHT22;28550;51.228;4.528;2023-04-02T02:03:24;7.60;99.90
42905;DHT22;28550;51.228;4.528;2023-04-02T02:06:01;7.60;99.90
42905;DHT22;28550;51.228;4.528;2023-04-02T02:11:02;7.60;99.90
42905;DHT22;28550;51.228;4.528;2023-04-02T02:13:49;7.60;99.90
42905;DHT22;28550;51.228;4.528;2023-04-02T02:16:20;7.60;99.90
42905;DHT22;28550;51.228;4.528;2023-04-02T02:19:00;7.50;99.90
42905;DHT22;28550;51.228;4.528;2023-04-02T02:21:42;7.50;99.90
42905;DHT22;28550;51.228;4.528;2023-04-02T02:24:23;7.40;99.90
42905;DHT22;28550;51.228;4.528;2023-04-02T02:27:09;7.40;99.90
42905;DHT22;28550;51.228;4.528;2023-04-02T02:29:42;7.50;99.90
42905;DHT22;28550;51.228;4.528;2023-04-02T02:32:10;7.40;99.90
42905;DHT22;28550;51.228;4.528;2023-04-02T02:34:41;7.40;99.90
42905;DHT22;28550;51.228;4.528;2023-04-02T02:37:27;7.50;99.90
42905;DHT22;28550;51.228;4.528;2023-04-02T02:39:59;7.40;99.90
42905;DHT22;28550;51.228;4.528;2023-04-02T02:43:16;7.30;99.90
42905;DHT22;28550;51.228;4.528;2023-04-02T02:48:22;7.30;99.90
42905;DHT22;28550;51.228;4.528;2023-04-02T02:50:50;7.30;99.90
42905;DHT22;28550;51.228;4.528;2023-04-02T02:53:23;7.40;99.90
42905;DHT22;28550;51.228;4.528;2023-04-02T02:56:39;7.20;99.90
42905;DHT22;28550;51.228;4.528;2023-04-02T02:59:15;7.30;99.90
42905;DHT22;28550;51.228;4.528;2023-04-02T03:01:43;7.20;99.90
42905;DHT22;28550;51.228;4.528;2023-04-02T03:04:10;7.30;99.90
42905;DHT22;28550;51.228;4.528;2023-04-02T03:06:51;7.40;99.90
42905;DHT22;28550;51.228;4.528;2023-04-02T03:09:45;7.30;99.90
42905;DHT22;28550;51.228;4.528;2023-04-02T03:12:37;7.30;99.90
42905;DHT22;28550;51.228;4.528;2023-04-02T03:15:24;7.30;99.90
42905;DHT22;28550;51.228;4.528;2023-04-02T03:18:02;7.30;99.90
42905;DHT22;28550;51.228;4.528;2023-04-02T03:20:47;7.30;99.90
42905;DHT22;28550;51.228;4.528;2023-04-02T03:23:26;7.40;99.90
42905;DHT22;28550;51.228;4.528;2023-04-02T03:29:31;7.40;99.90
42905;DHT22;28550;51.228;4.528;2023-04-02T03:32:21;7.30;99.90
42905;DHT22;28550;51.228;4.528;2023-04-02T03:34:55;7.20;99.90
42905;DHT22;28550;51.228;4.528;2023-04-02T03:42:22;7.10;99.90
42905;DHT22;28550;51.228;4.528;2023-04-02T03:52:44;7.00;99.90
42905;DHT22;28550;51.228;4.528;2023-04-02T03:55:23;7.00;99.90
42905;DHT22;28550;51.228;4.528;2023-04-02T04:03:49;7.00;99.90
42905;DHT22;28550;51.228;4.528;2023-04-02T04:06:34;7.00;99.90
42905;DHT22;28550;51.228;4.528;2023-04-02T04:09:19;7.00;99.90
42905;DHT22;28550;51.228;4.528;2023-04-02T04:12:13;7.00;99.90
42905;DHT22;28550;51.228;4.528;2023-04-02T04:20:54;7.00;99.90
42905;DHT22;28550;51.228;4.528;2023-04-02T04:23:27;7.10;99.90
42905;DHT22;28550;51.228;4.528;2023-04-02T04:31:50;7.10;99.90
42905;DHT22;28550;51.228;4.528;2023-04-02T04:37:04;7.10;99.90
42905;DHT22;28550;51.228;4.528;2023-04-02T04:39:49;7.10;99.90
42905;DHT22;28550;51.228;4.528;2023-04-02T04:42:29;7.00;99.90
42905;DHT22;28550;51.228;4.528;2023-04-02T04:45:02;7.00;99.90
42905;DHT22;28550;51.228;4.528;2023-04-02T04:50:56;7.00;99.90
42905;DHT22;28550;51.228;4.528;2023-04-02T04:53:47;6.90;99.90
42905;DHT22;28550;51.228;4.528;2023-04-02T04:56:28;6.80;99.90
42905;DHT22;28550;51.228;4.528;2023-04-02T04:59:30;6.80;99.90
42905;DHT22;28550;51.228;4.528;2023-04-02T05:02:05;6.90;99.90
42905;DHT22;28550;51.228;4.528;2023-04-02T05:04:38;6.90;99.90
42905;DHT22;28550;51.228;4.528;2023-04-02T05:07:14;6.80;99.90
42905;DHT22;28550;51.228;4.528;2023-04-02T05:17:53;6.90;99.90
42905;DHT22;28550;51.228;4.528;2023-04-02T05:20:30;6.80;99.90
42905;DHT22;28550;51.228;4.528;2023-04-02T05:23:13;6.80;99.90
42905;DHT22;28550;51.228;4.528;2023-04-02T05:26:05;6.90;99.90
42905;DHT22;28550;51.228;4.528;2023-04-02T05:28:38;6.90;99.90
42905;DHT22;28550;51.228;4.528;2023-04-02T05:33:37;6.80;99.90
42905;DHT22;28550;51.228;4.528;2023-04-02T05:36:26;6.90;99.90
42905;DHT22;28550;51.228;4.528;2023-04-02T05:38:55;6.80;99.90
42905;DHT22;28550;51.228;4.528;2023-04-02T05:44:16;6.60;99.90
42905;DHT22;28550;51.228;4.528;2023-04-02T05:52:03;6.50;99.90
42905;DHT22;28550;51.228;4.528;2023-04-02T05:54:43;6.50;99.90
42905;DHT22;28550;51.228;4.528;2023-04-02T05:57:22;6.40;99.90
42905;DHT22;28550;51.228;4.528;2023-04-02T05:59:55;6.40;99.90
42905;DHT22;28550;51.228;4.528;2023-04-02T06:02:38;6.50;99.90
42905;DHT22;28550;51.228;4.528;2023-04-02T06:05:23;6.50;99.90
42905;DHT22;28550;51.228;4.528;2023-04-02T06:08:15;6.40;99.90
42905;DHT22;28550;51.228;4.528;2023-04-02T06:11:12;6.50;99.90
42905;DHT22;28550;51.228;4.528;2023-04-02T06:13:36;6.40;99.90
42905;DHT22;28550;51.228;4.528;2023-04-02T06:16:02;6.30;99.90
42905;DHT22;28550;51.228;4.528;2023-04-02T06:18:33;6.30;99.90
42905;DHT22;28550;51.228;4.528;2023-04-02T06:21:07;6.30;99.90
42905;DHT22;28550;51.228;4.528;2023-04-02T06:23:52;6.40;99.90
42905;DHT22;28550;51.228;4.528;2023-04-02T06:26:37;6.40;99.90
42905;DHT22;28550;51.228;4.528;2023-04-02T06:32:10;6.40;99.90
42905;DHT22;28550;51.228;4.528;2023-04-02T06:34:46;6.50;99.90
42905;DHT22;28550;51.228;4.528;2023-04-02T06:37:34;6.60;99.90
42905;DHT22;28550;51.228;4.528;2023-04-02T06:44:03;6.60;99.90
42905;DHT22;28550;51.228;4.528;2023-04-02T06:47:45;6.60;99.90
42905;DHT22;28550;51.228;4.528;2023-04-02T06:53:03;6.50;99.90
42905;DHT22;28550;51.228;4.528;2023-04-02T06:56:35;6.40;99.90
42905;DHT22;28550;51.228;4.528;2023-04-02T06:58:45;6.40;99.90
42905;DHT22;28550;51.228;4.528;2023-04-02T07:01:32;6.20;99.90
42905;DHT22;28550;51.228;4.528;2023-04-02T07:04:00;6.30;99.90
42905;DHT22;28550;51.228;4.528;2023-04-02T07:06:26;6.30;99.90
42905;DHT22;28550;51.228;4.528;2023-04-02T07:08:51;6.30;99.90
42905;DHT22;28550;51.228;4.528;2023-04-02T07:11:22;6.40;99.90
42905;DHT22;28550;51.228;4.528;2023-04-02T07:13:50;6.40;99.90
42905;DHT22;28550;51.228;4.528;2023-04-02T07:16:23;6.40;99.90
42905;DHT22;28550;51.228;4.528;2023-04-02T07:18:53;6.40;99.90
42905;DHT22;28550;51.228;4.528;2023-04-02T07:21:36;6.50;99.90
42905;DHT22;28550;51.228;4.528;2023-04-02T07:24:01;6.60;99.90
42905;DHT22;28550;51.228;4.528;2023-04-02T07:26:28;6.70;99.90
42905;DHT22;28550;51.228;4.528;2023-04-02T07:28:55;6.60;99.90
42905;DHT22;28550;51.228;4.528;2023-04-02T07:31:37;6.60;99.90
42905;DHT22;28550;51.228;4.528;2023-04-02T07:34:05;6.60;99.90
42905;DHT22;28550;51.228;4.528;2023-04-02T07:36:34;6.30;99.90
42905;DHT22;28550;51.228;4.528;2023-04-02T07:39:00;6.10;98.90
42905;DHT22;28550;51.228;4.528;2023-04-02T07:41:27;6.10;99.80
42905;DHT22;28550;51.228;4.528;2023-04-02T07:44:02;6.00;99.90
42905;DHT22;28550;51.228;4.528;2023-04-02T07:46:29;6.00;99.90
42905;DHT22;28550;51.228;4.528;2023-04-02T07:48:58;5.90;98.50
42905;DHT22;28550;51.228;4.528;2023-04-02T07:51:27;6.00;99.70
42905;DHT22;28550;51.228;4.528;2023-04-02T07:53:58;6.10;98.90
42905;DHT22;28550;51.228;4.528;2023-04-02T07:56:27;6.10;98.40
42905;DHT22;28550;51.228;4.528;2023-04-02T07:58:53;6.20;98.30
42905;DHT22;28550;51.228;4.528;2023-04-02T08:01:27;6.20;95.00
42905;DHT22;28550;51.228;4.528;2023-04-02T08:04:29;6.00;97.50
42905;DHT22;28550;51.228;4.528;2023-04-02T08:06:57;6.10;97.50
42905;DHT22;28550;51.228;4.528;2023-04-02T08:09:22;6.10;96.60
42905;DHT22;28550;51.228;4.528;2023-04-02T08:11:55;6.10;95.00
42905;DHT22;28550;51.228;4.528;2023-04-02T08:14:20;6.30;96.50
42905;DHT22;28550;51.228;4.528;2023-04-02T08:16:57;6.30;92.90
42905;DHT22;28550;51.228;4.528;2023-04-02T08:19:24;6.30;92.70
42905;DHT22;28550;51.228;4.528;2023-04-02T08:21:55;6.30;87.40
42905;DHT22;28550;51.228;4.528;2023-04-02T08:24:22;6.30;88.90
42905;DHT22;28550;51.228;4.528;2023-04-02T08:26:50;6.30;82.90
42905;DHT22;28550;51.228;4.528;2023-04-02T08:29:18;6.40;89.50
42905;DHT22;28550;51.228;4.528;2023-04-02T08:31:44;6.50;84.30
42905;DHT22;28550;51.228;4.528;2023-04-02T08:36:56;6.90;74.00
42905;DHT22;28550;51.228;4.528;2023-04-02T08:39:40;7.00;67.60
42905;DHT22;28550;51.228;4.528;2023-04-02T08:48:59;7.00;57.40
42905;DHT22;28550;51.228;4.528;2023-04-02T08:51:53;7.00;52.40
42905;DHT22;28550;51.228;4.528;2023-04-02T08:54:30;6.90;59.20
42905;DHT22;28550;51.228;4.528;2023-04-02T09:03:50;7.00;57.90
42905;DHT22;28550;51.228;4.528;2023-04-02T09:06:34;7.30;38.80
42905;DHT22;28550;51.228;4.528;2023-04-02T09:09:15;7.10;35.20
42905;DHT22;28550;51.228;4.528;2023-04-02T09:14:29;7.00;18.70
42905;DHT22;28550;51.228;4.528;2023-04-02T09:17:19;6.80;19.50
42905;DHT22;28550;51.228;4.528;2023-04-02T09:19:53;6.90;28.50
42905;DHT22;28550;51.228;4.528;2023-04-02T09:22:26;7.00;36.80
42905;DHT22;28550;51.228;4.528;2023-04-02T09:25:20;7.40;19.30
42905;DHT22;28550;51.228;4.528;2023-04-02T09:27:49;7.70;1.00
42905;DHT22;28550;51.228;4.528;2023-04-02T09:33:05;7.30;1.00
42905;DHT22;28550;51.228;4.528;2023-04-02T09:35:58;7.40;1.00
42905;DHT22;28550;51.228;4.528;2023-04-02T09:38:27;7.40;1.00
42905;DHT22;28550;51.228;4.528;2023-04-02T09:41:17;7.60;1.00
42905;DHT22;28550;51.228;4.528;2023-04-02T09:44:38;7.60;1.00
42905;DHT22;28550;51.228;4.528;2023-04-02T09:47:27;7.60;1.00
42905;DHT22;28550;51.228;4.528;2023-04-02T09:53:27;7.50;1.00
42905;DHT22;28550;51.228;4.528;2023-04-02T09:56:23;7.40;1.00
42905;DHT22;28550;51.228;4.528;2023-04-02T09:59:04;7.30;1.00
42905;DHT22;28550;51.228;4.528;2023-04-02T10:01:43;7.30;9.80
42905;DHT22;28550;51.228;4.528;2023-04-02T10:04:41;7.80;1.00
42905;DHT22;28550;51.228;4.528;2023-04-02T10:07:46;7.90;1.00
42905;DHT22;28550;51.228;4.528;2023-04-02T10:10:27;7.80;1.00
42905;DHT22;28550;51.228;4.528;2023-04-02T10:16:13;7.90;1.00
42905;DHT22;28550;51.228;4.528;2023-04-02T10:18:54;7.90;1.00
42905;DHT22;28550;51.228;4.528;2023-04-02T10:21:34;7.60;1.00
42905;DHT22;28550;51.228;4.528;2023-04-02T10:24:15;7.50;1.00
42905;DHT22;28550;51.228;4.528;2023-04-02T10:27:10;7.20;1.00
42905;DHT22;28550;51.228;4.528;2023-04-02T10:32:59;7.00;12.30
42905;DHT22;28550;51.228;4.528;2023-04-02T10:59:33;7.40;1.00
42905;DHT22;28550;51.228;4.528;2023-04-02T11:05:50;7.40;1.00
42905;DHT22;28550;51.228;4.528;2023-04-02T11:14:31;7.50;1.00
42905;DHT22;28550;51.228;4.528;2023-04-02T11:17:21;7.70;1.00
42905;DHT22;28550;51.228;4.528;2023-04-02T11:19:49;7.30;1.00
42905;DHT22;28550;51.228;4.528;2023-04-02T11:22:27;7.50;1.00
42905;DHT22;28550;51.228;4.528;2023-04-02T11:24:55;7.80;1.00
42905;DHT22;28550;51.228;4.528;2023-04-02T11:30:39;8.00;1.00
42905;DHT22;28550;51.228;4.528;2023-04-02T11:42:47;7.60;1.00
42905;DHT22;28550;51.228;4.528;2023-04-02T11:53:33;7.60;1.00
42905;DHT22;28550;51.228;4.528;2023-04-02T12:05:25;7.80;1.00
42905;DHT22;28550;51.228;4.528;2023-04-02T12:16:13;7.60;1.00
42905;DHT22;28550;51.228;4.528;2023-04-02T12:18:49;7.90;1.00
42905;DHT22;28550;51.228;4.528;2023-04-02T12:21:21;8.00;1.00
42905;DHT22;28550;51.228;4.528;2023-04-02T12:24:00;7.70;1.00
42905;DHT22;28550;51.228;4.528;2023-04-02T12:26:42;7.80;1.00
42905;DHT22;28550;51.228;4.528;2023-04-02T12:29:27;7.80;1.00
42905;DHT22;28550;51.228;4.528;2023-04-02T12:31:57;7.90;1.00
42905;DHT22;28550;51.228;4.528;2023-04-02T12:34:27;8.00;1.00
42905;DHT22;28550;51.228;4.528;2023-04-02T12:37:02;7.90;1.00
42905;DHT22;28550;51.228;4.528;2023-04-02T12:39:30;7.60;1.00
42905;DHT22;28550;51.228;4.528;2023-04-02T12:42:02;7.60;1.00
42905;DHT22;28550;51.228;4.528;2023-04-02T12:44:29;7.60;1.00
42905;DHT22;28550;51.228;4.528;2023-04-02T12:46:58;7.70;1.00
42905;DHT22;28550;51.228;4.528;2023-04-02T12:49:36;7.90;1.00
42905;DHT22;28550;51.228;4.528;2023-04-02T12:52:09;8.00;1.00
42905;DHT22;28550;51.228;4.528;2023-04-02T12:54:50;7.90;1.00
42905;DHT22;28550;51.228;4.528;2023-04-02T13:00:27;8.00;1.00
42905;DHT22;28550;51.228;4.528;2023-04-02T13:05:35;8.10;1.00
42905;DHT22;28550;51.228;4.528;2023-04-02T13:08:24;8.20;99.90
42905;DHT22;28550;51.228;4.528;2023-04-02T13:11:00;8.20;1.00
42905;DHT22;28550;51.228;4.528;2023-04-02T13:13:42;8.10;1.00
42905;DHT22;28550;51.228;4.528;2023-04-02T13:18:49;8.00;1.00
42905;DHT22;28550;51.228;4.528;2023-04-02T13:21:29;7.90;1.00
42905;DHT22;28550;51.228;4.528;2023-04-02T13:23:56;7.90;1.00
42905;DHT22;28550;51.228;4.528;2023-04-02T13:26:26;8.00;1.00
42905;DHT22;28550;51.228;4.528;2023-04-02T13:29:25;8.00;1.00
42905;DHT22;28550;51.228;4.528;2023-04-02T13:31:51;8.30;1.00
42905;DHT22;28550;51.228;4.528;2023-04-02T13:34:17;8.30;1.00
42905;DHT22;28550;51.228;4.528;2023-04-02T13:36:46;8.50;1.00
42905;DHT22;28550;51.228;4.528;2023-04-02T13:39:11;8.60;1.00
42905;DHT22;28550;51.228;4.528;2023-04-02T13:41:59;8.50;1.00
42905;DHT22;28550;51.228;4.528;2023-04-02T13:44:28;8.40;99.90
42905;DHT22;28550;51.228;4.528;2023-04-02T13:46:57;8.60;99.90
42905;DHT22;28550;51.228;4.528;2023-04-02T13:49:24;8.60;99.90
42905;DHT22;28550;51.228;4.528;2023-04-02T13:51:55;8.30;1.00
42905;DHT22;28550;51.228;4.528;2023-04-02T13:54:55;8.10;1.00
42905;DHT22;28550;51.228;4.528;2023-04-02T13:57:25;8.00;1.00
42905;DHT22;28550;51.228;4.528;2023-04-02T13:59:53;8.20;1.00
42905;DHT22;28550;51.228;4.528;2023-04-02T14:02:25;8.10;1.00
42905;DHT22;28550;51.228;4.528;2023-04-02T14:04:58;8.10;1.00
42905;DHT22;28550;51.228;4.528;2023-04-02T14:10:30;8.00;1.00
42905;DHT22;28550;51.228;4.528;2023-04-02T14:13:04;8.20;1.00
42905;DHT22;28550;51.228;4.528;2023-04-02T14:18:22;8.20;1.00
42905;DHT22;28550;51.228;4.528;2023-04-02T14:21:09;8.30;99.90
42905;DHT22;28550;51.228;4.528;2023-04-02T14:32:04;8.60;99.90
42905;DHT22;28550;51.228;4.528;2023-04-02T14:38:07;8.90;1.00
42905;DHT22;28550;51.228;4.528;2023-04-02T14:40:39;8.70;1.00
42905;DHT22;28550;51.228;4.528;2023-04-02T14:45:58;8.80;1.00
42905;DHT22;28550;51.228;4.528;2023-04-02T15:03:23;10.50;99.90
42905;DHT22;28550;51.228;4.528;2023-04-02T15:05:59;10.30;1.00
42905;DHT22;28550;51.228;4.528;2023-04-02T15:08:44;11.00;1.00
42905;DHT22;28550;51.228;4.528;2023-04-02T15:11:45;12.30;1.00
42905;DHT22;28550;51.228;4.528;2023-04-02T15:17:02;12.90;1.00
42905;DHT22;28550;51.228;4.528;2023-04-02T15:19:28;13.10;92.60
42905;DHT22;28550;51.228;4.528;2023-04-02T15:22:16;13.20;1.00
42905;DHT22;28550;51.228;4.528;2023-04-02T15:30:41;12.80;1.00
42905;DHT22;28550;51.228;4.528;2023-04-02T15:38:47;13.20;32.40
42905;DHT22;28550;51.228;4.528;2023-04-02T15:44:29;11.90;99.80
42905;DHT22;28550;51.228;4.528;2023-04-02T15:47:31;11.30;1.00
42905;DHT22;28550;51.228;4.528;2023-04-02T15:55:25;10.50;1.00
42905;DHT22;28550;51.228;4.528;2023-04-02T15:58:16;10.60;1.00
42905;DHT22;28550;51.228;4.528;2023-04-02T16:12:47;11.30;99.90
42905;DHT22;28550;51.228;4.528;2023-04-02T16:16:08;11.00;99.90
42905;DHT22;28550;51.228;4.528;2023-04-02T16:21:50;10.20;1.00
42905;DHT22;28550;51.228;4.528;2023-04-02T16:24:18;10.10;99.90
42905;DHT22;28550;51.228;4.528;2023-04-02T16:29:52;10.10;1.00
42905;DHT22;28550;51.228;4.528;2023-04-02T17:00:37;10.80;1.00
42905;DHT22;28550;51.228;4.528;2023-04-02T17:03:32;10.90;1.00
42905;DHT22;28550;51.228;4.528;2023-04-02T17:12:02;11.90;1.00
42905;DHT22;28550;51.228;4.528;2023-04-02T17:17:42;12.40;99.90
42905;DHT22;28550;51.228;4.528;2023-04-02T17:20:30;12.40;5.30
42905;DHT22;28550;51.228;4.528;2023-04-02T17:22:57;11.70;1.00
42905;DHT22;28550;51.228;4.528;2023-04-02T17:25:30;11.00;13.10
42905;DHT22;28550;51.228;4.528;2023-04-02T17:28:14;10.40;99.90
42905;DHT22;28550;51.228;4.528;2023-04-02T17:30:42;10.20;99.90
42905;DHT22;28550;51.228;4.528;2023-04-02T17:50:21;8.60;99.90
42905;DHT22;28550;51.228;4.528;2023-04-02T18:01:55;8.30;99.90
42905;DHT22;28550;51.228;4.528;2023-04-02T18:10:27;7.80;99.90
42905;DHT22;28550;51.228;4.528;2023-04-02T18:13:05;7.90;1.00
42905;DHT22;28550;51.228;4.528;2023-04-02T18:18:59;7.60;99.90
42905;DHT22;28550;51.228;4.528;2023-04-02T18:21:56;7.40;99.90
42905;DHT22;28550;51.228;4.528;2023-04-02T18:32:58;6.80;1.00
42905;DHT22;28550;51.228;4.528;2023-04-02T18:35:47;6.70;1.00
42905;DHT22;28550;51.228;4.528;2023-04-02T18:44:58;6.40;1.00
42905;DHT22;28550;51.228;4.528;2023-04-02T18:50:41;6.20;1.00
42905;DHT22;28550;51.228;4.528;2023-04-02T18:53:31;6.10;11.30
42905;DHT22;28550;51.228;4.528;2023-04-02T18:56:27;6.10;18.50
42905;DHT22;28550;51.228;4.528;2023-04-02T18:59:01;6.00;25.50
42905;DHT22;28550;51.228;4.528;2023-04-02T19:01:40;5.90;32.30
42905;DHT22;28550;51.228;4.528;2023-04-02T19:04:29;5.90;38.70
42905;DHT22;28550;51.228;4.528;2023-04-02T19:07:34;5.70;36.30
42905;DHT22;28550;51.228;4.528;2023-04-02T19:10:45;5.70;40.30
42905;DHT22;28550;51.228;4.528;2023-04-02T19:13:21;5.50;47.90
42905;DHT22;28550;51.228;4.528;2023-04-02T19:36:03;5.10;82.80
42905;DHT22;28550;51.228;4.528;2023-04-02T19:44:08;5.10;90.70
42905;DHT22;28550;51.228;4.528;2023-04-02T19:46:39;5.10;91.10
42905;DHT22;28550;51.228;4.528;2023-04-02T19:52:28;5.10;93.30
42905;DHT22;28550;51.228;4.528;2023-04-02T19:54:57;5.10;89.10
42905;DHT22;28550;51.228;4.528;2023-04-02T19:57:23;5.00;90.60
42905;DHT22;28550;51.228;4.528;2023-04-02T20:12:32;4.70;95.40
42905;DHT22;28550;51.228;4.528;2023-04-02T20:14:57;4.60;94.00
42905;DHT22;28550;51.228;4.528;2023-04-02T20:20:26;4.60;95.00
42905;DHT22;28550;51.228;4.528;2023-04-02T20:26:21;4.50;92.60
42905;DHT22;28550;51.228;4.528;2023-04-02T20:36:11;4.50;94.90
42905;DHT22;28550;51.228;4.528;2023-04-02T20:39:18;4.40;96.10
42905;DHT22;28550;51.228;4.528;2023-04-02T20:42:31;4.30;95.90
42905;DHT22;28550;51.228;4.528;2023-04-02T20:45:40;4.30;96.40
42905;DHT22;28550;51.228;4.528;2023-04-02T20:57:50;4.20;96.20
42905;DHT22;28550;51.228;4.528;2023-04-02T21:11:21;3.90;99.20
42905;DHT22;28550;51.228;4.528;2023-04-02T21:14:44;4.00;99.40
42905;DHT22;28550;51.228;4.528;2023-04-02T21:20:20;3.80;99.80
42905;DHT22;28550;51.228;4.528;2023-04-02T21:22:47;3.90;98.40
42905;DHT22;28550;51.228;4.528;2023-04-02T21:25:13;3.80;98.50
42905;DHT22;28550;51.228;4.528;2023-04-02T21:27:41;3.80;99.20
42905;DHT22;28550;51.228;4.528;2023-04-02T21:30:07;3.80;98.40
42905;DHT22;28550;51.228;4.528;2023-04-02T21:32:34;3.70;97.80
42905;DHT22;28550;51.228;4.528;2023-04-02T21:35:00;3.70;96.00
42905;DHT22;28550;51.228;4.528;2023-04-02T21:37:28;3.80;96.00
42905;DHT22;28550;51.228;4.528;2023-04-02T21:39:54;3.60;95.50
42905;DHT22;28550;51.228;4.528;2023-04-02T21:42:19;3.60;95.60
42905;DHT22;28550;51.228;4.528;2023-04-02T21:44:45;3.60;98.10
42905;DHT22;28550;51.228;4.528;2023-04-02T21:47:11;3.60;98.40
42905;DHT22;28550;51.228;4.528;2023-04-02T21:49:36;3.60;98.70
42905;DHT22;28550;51.228;4.528;2023-04-02T21:52:02;3.50;98.80
42905;DHT22;28550;51.228;4.528;2023-04-02T21:54:29;3.50;98.80
42905;DHT22;28550;51.228;4.528;2023-04-02T21:57:06;3.40;96.00
42905;DHT22;28550;51.228;4.528;2023-04-02T21:59:32;3.40;96.50
42905;DHT22;28550;51.228;4.528;2023-04-02T22:02:00;3.40;98.30
42905;DHT22;28550;51.228;4.528;2023-04-02T22:04:26;3.40;99.70
42905;DHT22;28550;51.228;4.528;2023-04-02T22:06:53;3.40;99.50
42905;DHT22;28550;51.228;4.528;2023-04-02T22:09:24;3.30;99.90
42905;DHT22;28550;51.228;4.528;2023-04-02T22:11:53;3.30;99.80
42905;DHT22;28550;51.228;4.528;2023-04-02T22:14:23;3.30;99.10
42905;DHT22;28550;51.228;4.528;2023-04-02T22:16:49;3.30;96.90
42905;DHT22;28550;51.228;4.528;2023-04-02T22:19:20;3.30;96.20
42905;DHT22;28550;51.228;4.528;2023-04-02T22:21:47;3.30;96.20
42905;DHT22;28550;51.228;4.528;2023-04-02T22:24:16;3.20;95.70
42905;DHT22;28550;51.228;4.528;2023-04-02T22:26:47;3.20;97.80
42905;DHT22;28550;51.228;4.528;2023-04-02T22:29:13;3.20;96.60
42905;DHT22;28550;51.228;4.528;2023-04-02T22:31:39;3.10;96.20
42905;DHT22;28550;51.228;4.528;2023-04-02T22:34:05;3.10;96.00
42905;DHT22;28550;51.228;4.528;2023-04-02T22:36:39;3.10;96.10
42905;DHT22;28550;51.228;4.528;2023-04-02T22:39:11;3.00;96.70
42905;DHT22;28550;51.228;4.528;2023-04-02T22:41:40;2.90;94.90
42905;DHT22;28550;51.228;4.528;2023-04-02T22:44:12;2.90;94.30
42905;DHT22;28550;51.228;4.528;2023-04-02T22:46:39;2.80;97.90
42905;DHT22;28550;51.228;4.528;2023-04-02T22:49:05;2.80;96.50
42905;DHT22;28550;51.228;4.528;2023-04-02T22:51:31;2.70;96.80
42905;DHT22;28550;51.228;4.528;2023-04-02T22:53:57;2.70;95.50
42905;DHT22;28550;51.228;4.528;2023-04-02T22:56:27;2.70;95.30
42905;DHT22;28550;51.228;4.528;2023-04-02T22:58:56;2.70;96.20
42905;DHT22;28550;51.228;4.528;2023-04-02T23:01:26;2.70;95.60
42905;DHT22;28550;51.228;4.528;2023-04-02T23:03:53;2.60;97.60
42905;DHT22;28550;51.228;4.528;2023-04-02T23:06:26;2.60;97.40
42905;DHT22;28550;51.228;4.528;2023-04-02T23:08:52;2.60;98.20
42905;DHT22;28550;51.228;4.528;2023-04-02T23:11:34;2.50;97.30
42905;DHT22;28550;51.228;4.528;2023-04-02T23:14:00;2.50;97.40
42905;DHT22;28550;51.228;4.528;2023-04-02T23:16:29;2.50;96.30
42905;DHT22;28550;51.228;4.528;2023-04-02T23:18:58;2.50;96.50
42905;DHT22;28550;51.228;4.528;2023-04-02T23:21:27;2.50;95.50
42905;DHT22;28550;51.228;4.528;2023-04-02T23:23:53;2.50;95.90
42905;DHT22;28550;51.228;4.528;2023-04-02T23:26:27;2.40;97.50
42905;DHT22;28550;51.228;4.528;2023-04-02T23:28:53;2.40;97.60
42905;DHT22;28550;51.228;4.528;2023-04-02T23:31:21;2.30;94.80
42905;DHT22;28550;51.228;4.528;2023-04-02T23:33:47;2.30;96.40
42905;DHT22;28550;51.228;4.528;2023-04-02T23:36:36;2.20;97.00
42905;DHT22;28550;51.228;4.528;2023-04-02T23:39:21;2.10;96.70
42905;DHT22;28550;51.228;4.528;2023-04-02T23:41:47;2.10;96.30
42905;DHT22;28550;51.228;4.528;2023-04-02T23:44:13;2.10;97.30
42905;DHT22;28550;51.228;4.528;2023-04-02T23:46:40;2.10;97.70
42905;DHT22;28550;51.228;4.528;2023-04-02T23:52:28;2.10;99.50
42905;DHT22;28550;51.228;4.528;2023-04-02T23:54:59;2.10;97.30
42905;DHT22;28550;51.228;4.528;2023-04-02T23:57:28;2.10;98.20
